sensor_id;sensor_type;location;lat;lon;timestamp;pressure;altitude;pressure_sealevel;temperature;humidity
73143;BME280;61343;53.694;9.988;2022-11-20T00:01:23;100940.00;;;1.31;88.21
73143;BME280;61343;53.694;9.988;2022-11-20T00:03:50;100942.75;;;1.39;87.81
73143;BME280;61343;53.694;9.988;2022-11-20T00:06:17;100935.50;;;1.41;87.88
73143;BME280;61343;53.694;9.988;2022-11-20T00:08:44;100946.34;;;1.38;88.43
73143;BME280;61343;53.694;9.988;2022-11-20T00:11:12;100949.06;;;1.46;87.68
73143;BME280;61343;53.694;9.988;2022-11-20T00:13:37;100942.41;;;1.42;87.80
73143;BME280;61343;53.694;9.988;2022-11-20T00:16:04;100944.91;;;1.43;87.76
73143;BME280;61343;53.694;9.988;2022-11-20T00:18:30;100948.09;;;1.47;87.54
73143;BME280;61343;53.694;9.988;2022-11-20T00:21:09;100944.69;;;1.37;88.19
73143;BME280;61343;53.694;9.988;2022-11-20T00:23:35;100942.59;;;1.40;88.16
73143;BME280;61343;53.694;9.988;2022-11-20T00:26:02;100937.84;;;1.44;87.83
73143;BME280;61343;53.694;9.988;2022-11-20T00:28:27;100931.88;;;1.42;88.31
73143;BME280;61343;53.694;9.988;2022-11-20T00:31:00;100934.75;;;1.48;88.31
73143;BME280;61343;53.694;9.988;2022-11-20T00:33:25;100938.50;;;1.46;87.70
73143;BME280;61343;53.694;9.988;2022-11-20T00:35:51;100929.63;;;1.47;87.81
73143;BME280;61343;53.694;9.988;2022-11-20T00:38:16;100938.13;;;1.41;88.06
73143;BME280;61343;53.694;9.988;2022-11-20T00:40:41;100937.47;;;1.39;87.97
73143;BME280;61343;53.694;9.988;2022-11-20T00:43:06;100938.44;;;1.38;88.08
73143;BME280;61343;53.694;9.988;2022-11-20T00:45:32;100939.41;;;1.37;88.16
73143;BME280;61343;53.694;9.988;2022-11-20T00:47:57;100932.03;;;1.40;88.60
73143;BME280;61343;53.694;9.988;2022-11-20T00:50:22;100931.13;;;1.32;88.71
73143;BME280;61343;53.694;9.988;2022-11-20T00:52:47;100931.56;;;1.27;88.57
73143;BME280;61343;53.694;9.988;2022-11-20T00:55:13;100932.03;;;1.23;88.53
73143;BME280;61343;53.694;9.988;2022-11-20T00:57:38;100929.75;;;1.28;89.22
73143;BME280;61343;53.694;9.988;2022-11-20T01:00:04;100933.41;;;1.27;89.62
73143;BME280;61343;53.694;9.988;2022-11-20T01:02:29;100937.84;;;1.26;89.57
73143;BME280;61343;53.694;9.988;2022-11-20T01:04:54;100927.81;;;1.30;89.32
73143;BME280;61343;53.694;9.988;2022-11-20T01:07:19;100923.91;;;1.34;89.22
73143;BME280;61343;53.694;9.988;2022-11-20T01:09:45;100927.53;;;1.33;89.40
73143;BME280;61343;53.694;9.988;2022-11-20T01:12:10;100927.53;;;1.33;89.13
73143;BME280;61343;53.694;9.988;2022-11-20T01:14:35;100925.03;;;1.31;89.45
73143;BME280;61343;53.694;9.988;2022-11-20T01:17:00;100918.56;;;1.26;89.78
73143;BME280;61343;53.694;9.988;2022-11-20T01:19:26;100911.25;;;1.37;89.53
73143;BME280;61343;53.694;9.988;2022-11-20T01:21:53;100920.28;;;1.35;89.36
73143;BME280;61343;53.694;9.988;2022-11-20T01:24:20;100923.06;;;1.33;89.86
73143;BME280;61343;53.694;9.988;2022-11-20T01:26:47;100920.88;;;1.29;89.96
73143;BME280;61343;53.694;9.988;2022-11-20T01:29:16;100909.00;;;1.25;90.71
73143;BME280;61343;53.694;9.988;2022-11-20T01:31:43;100910.13;;;1.22;91.17
73143;BME280;61343;53.694;9.988;2022-11-20T01:34:13;100904.00;;;1.22;91.08
73143;BME280;61343;53.694;9.988;2022-11-20T01:36:40;100902.75;;;1.26;91.55
73143;BME280;61343;53.694;9.988;2022-11-20T01:39:10;100905.81;;;1.21;91.92
73143;BME280;61343;53.694;9.988;2022-11-20T01:41:36;100889.88;;;1.23;92.02
73143;BME280;61343;53.694;9.988;2022-11-20T01:44:23;100888.91;;;1.24;91.67
73143;BME280;61343;53.694;9.988;2022-11-20T01:47:09;100881.00;;;1.24;92.11
73143;BME280;61343;53.694;9.988;2022-11-20T01:49:54;100883.25;;;1.19;92.31
73143;BME280;61343;53.694;9.988;2022-11-20T01:52:45;100891.31;;;1.17;92.46
73143;BME280;61343;53.694;9.988;2022-11-20T01:55:18;100880.91;;;1.16;92.94
73143;BME280;61343;53.694;9.988;2022-11-20T01:57:45;100879.63;;;1.20;92.60
73143;BME280;61343;53.694;9.988;2022-11-20T02:00:15;100881.31;;;1.21;92.46
73143;BME280;61343;53.694;9.988;2022-11-20T02:02:44;100873.53;;;1.19;92.66
73143;BME280;61343;53.694;9.988;2022-11-20T02:05:19;100879.69;;;1.10;93.18
73143;BME280;61343;53.694;9.988;2022-11-20T02:07:48;100878.56;;;1.12;93.17
73143;BME280;61343;53.694;9.988;2022-11-20T02:10:14;100870.06;;;1.19;93.53
73143;BME280;61343;53.694;9.988;2022-11-20T02:12:39;100870.91;;;1.19;93.01
73143;BME280;61343;53.694;9.988;2022-11-20T02:15:23;100866.16;;;1.23;93.32
73143;BME280;61343;53.694;9.988;2022-11-20T02:17:48;100861.03;;;1.21;93.27
73143;BME280;61343;53.694;9.988;2022-11-20T02:20:14;100870.16;;;1.27;93.31
73143;BME280;61343;53.694;9.988;2022-11-20T02:23:36;100864.91;;;1.27;92.74
73143;BME280;61343;53.694;9.988;2022-11-20T02:25:41;100867.66;;;1.25;93.01
73143;BME280;61343;53.694;9.988;2022-11-20T02:28:08;100866.63;;;1.18;92.75
73143;BME280;61343;53.694;9.988;2022-11-20T02:30:33;100860.53;;;1.18;93.45
73143;BME280;61343;53.694;9.988;2022-11-20T02:32:58;100861.78;;;1.13;93.64
73143;BME280;61343;53.694;9.988;2022-11-20T02:37:54;100852.22;;;1.12;93.57
73143;BME280;61343;53.694;9.988;2022-11-20T02:40:20;100848.63;;;1.13;93.84
73143;BME280;61343;53.694;9.988;2022-11-20T02:42:45;100842.75;;;1.20;93.94
73143;BME280;61343;53.694;9.988;2022-11-20T02:45:10;100846.91;;;1.22;93.27
73143;BME280;61343;53.694;9.988;2022-11-20T02:47:37;100847.13;;;1.29;93.60
73143;BME280;61343;53.694;9.988;2022-11-20T02:50:04;100840.59;;;1.33;92.69
73143;BME280;61343;53.694;9.988;2022-11-20T02:52:30;100849.00;;;1.36;92.52
73143;BME280;61343;53.694;9.988;2022-11-20T02:54:55;100848.25;;;1.26;92.42
73143;BME280;61343;53.694;9.988;2022-11-20T02:57:20;100847.44;;;1.26;92.46
73143;BME280;61343;53.694;9.988;2022-11-20T02:59:46;100838.09;;;1.13;93.03
73143;BME280;61343;53.694;9.988;2022-11-20T03:02:11;100842.41;;;1.15;92.73
73143;BME280;61343;53.694;9.988;2022-11-20T03:04:36;100840.91;;;1.12;92.96
73143;BME280;61343;53.694;9.988;2022-11-20T03:07:02;100838.63;;;1.17;93.29
73143;BME280;61343;53.694;9.988;2022-11-20T03:09:27;100839.75;;;1.15;93.09
73143;BME280;61343;53.694;9.988;2022-11-20T03:11:53;100836.72;;;1.09;93.00
73143;BME280;61343;53.694;9.988;2022-11-20T03:14:18;100844.78;;;1.08;93.41
73143;BME280;61343;53.694;9.988;2022-11-20T03:16:43;100841.69;;;1.12;93.41
73143;BME280;61343;53.694;9.988;2022-11-20T03:19:08;100842.22;;;1.16;92.97
73143;BME280;61343;53.694;9.988;2022-11-20T03:21:34;100842.81;;;1.10;93.54
73143;BME280;61343;53.694;9.988;2022-11-20T03:24:00;100843.06;;;1.17;92.91
73143;BME280;61343;53.694;9.988;2022-11-20T03:26:26;100834.69;;;1.21;92.99
73143;BME280;61343;53.694;9.988;2022-11-20T03:28:53;100838.63;;;1.17;92.87
73143;BME280;61343;53.694;9.988;2022-11-20T03:31:22;100831.84;;;1.15;93.07
73143;BME280;61343;53.694;9.988;2022-11-20T03:33:47;100837.25;;;1.13;92.50
73143;BME280;61343;53.694;9.988;2022-11-20T03:36:14;100836.13;;;1.16;92.79
73143;BME280;61343;53.694;9.988;2022-11-20T03:38:40;100829.81;;;1.08;93.52
73143;BME280;61343;53.694;9.988;2022-11-20T03:41:19;100830.34;;;1.12;92.99
73143;BME280;61343;53.694;9.988;2022-11-20T03:43:52;100829.22;;;1.15;92.87
73143;BME280;61343;53.694;9.988;2022-11-20T03:46:18;100825.09;;;1.12;92.46
73143;BME280;61343;53.694;9.988;2022-11-20T03:48:44;100832.00;;;1.13;93.02
73143;BME280;61343;53.694;9.988;2022-11-20T03:51:12;100823.72;;;1.08;92.72
73143;BME280;61343;53.694;9.988;2022-11-20T03:53:39;100821.53;;;1.03;93.23
73143;BME280;61343;53.694;9.988;2022-11-20T03:56:05;100818.88;;;1.03;93.42
73143;BME280;61343;53.694;9.988;2022-11-20T03:58:30;100808.75;;;1.08;93.18
73143;BME280;61343;53.694;9.988;2022-11-20T04:00:57;100817.91;;;1.04;93.59
73143;BME280;61343;53.694;9.988;2022-11-20T04:03:22;100814.03;;;1.08;93.15
73143;BME280;61343;53.694;9.988;2022-11-20T04:05:47;100820.41;;;1.06;93.23
73143;BME280;61343;53.694;9.988;2022-11-20T04:08:12;100824.84;;;1.05;93.25
73143;BME280;61343;53.694;9.988;2022-11-20T04:10:38;100818.81;;;0.95;93.20
73143;BME280;61343;53.694;9.988;2022-11-20T04:13:03;100818.16;;;0.93;93.92
73143;BME280;61343;53.694;9.988;2022-11-20T04:15:28;100815.22;;;0.96;93.38
73143;BME280;61343;53.694;9.988;2022-11-20T04:17:54;100819.06;;;1.02;93.27
73143;BME280;61343;53.694;9.988;2022-11-20T04:20:19;100819.19;;;1.00;93.14
73143;BME280;61343;53.694;9.988;2022-11-20T04:22:44;100809.06;;;1.05;93.25
73143;BME280;61343;53.694;9.988;2022-11-20T04:25:10;100812.66;;;1.04;92.98
73143;BME280;61343;53.694;9.988;2022-11-20T04:27:35;100813.31;;;1.06;93.20
73143;BME280;61343;53.694;9.988;2022-11-20T04:30:00;100807.69;;;1.01;93.32
73143;BME280;61343;53.694;9.988;2022-11-20T04:32:25;100804.03;;;0.94;93.32
73143;BME280;61343;53.694;9.988;2022-11-20T04:34:51;100808.28;;;0.95;93.74
73143;BME280;61343;53.694;9.988;2022-11-20T04:37:16;100807.47;;;0.95;93.53
73143;BME280;61343;53.694;9.988;2022-11-20T04:39:42;100801.22;;;0.96;93.30
73143;BME280;61343;53.694;9.988;2022-11-20T04:42:08;100804.81;;;0.95;93.25
73143;BME280;61343;53.694;9.988;2022-11-20T04:44:53;100802.06;;;0.96;93.45
73143;BME280;61343;53.694;9.988;2022-11-20T04:47:18;100795.28;;;0.94;93.43
73143;BME280;61343;53.694;9.988;2022-11-20T04:49:43;100789.56;;;0.98;93.48
73143;BME280;61343;53.694;9.988;2022-11-20T04:52:09;100792.66;;;0.94;93.21
73143;BME280;61343;53.694;9.988;2022-11-20T04:54:34;100791.53;;;0.96;93.12
73143;BME280;61343;53.694;9.988;2022-11-20T04:56:59;100791.16;;;0.91;93.48
73143;BME280;61343;53.694;9.988;2022-11-20T04:59:24;100796.56;;;0.90;93.37
73143;BME280;61343;53.694;9.988;2022-11-20T05:01:50;100794.38;;;0.85;93.18
73143;BME280;61343;53.694;9.988;2022-11-20T05:04:15;100792.66;;;0.94;93.54
73143;BME280;61343;53.694;9.988;2022-11-20T05:06:40;100783.69;;;1.04;93.84
73143;BME280;61343;53.694;9.988;2022-11-20T05:09:05;100784.34;;;1.06;93.08
73143;BME280;61343;53.694;9.988;2022-11-20T05:11:31;100776.31;;;1.08;92.53
73143;BME280;61343;53.694;9.988;2022-11-20T05:13:58;100778.28;;;1.06;92.53
73143;BME280;61343;53.694;9.988;2022-11-20T05:16:24;100775.19;;;1.10;92.59
73143;BME280;61343;53.694;9.988;2022-11-20T05:18:51;100774.13;;;1.03;92.32
73143;BME280;61343;53.694;9.988;2022-11-20T05:21:17;100764.44;;;1.04;92.23
73143;BME280;61343;53.694;9.988;2022-11-20T05:23:43;100760.28;;;1.01;92.49
73143;BME280;61343;53.694;9.988;2022-11-20T05:26:16;100750.06;;;0.98;92.73
73143;BME280;61343;53.694;9.988;2022-11-20T05:28:41;100753.69;;;0.97;92.41
73143;BME280;61343;53.694;9.988;2022-11-20T05:31:09;100759.25;;;0.94;92.40
73143;BME280;61343;53.694;9.988;2022-11-20T05:33:35;100756.94;;;0.91;92.44
73143;BME280;61343;53.694;9.988;2022-11-20T05:36:02;100754.28;;;0.91;92.83
73143;BME280;61343;53.694;9.988;2022-11-20T05:38:28;100755.63;;;0.95;92.67
73143;BME280;61343;53.694;9.988;2022-11-20T05:40:53;100753.38;;;1.00;93.28
73143;BME280;61343;53.694;9.988;2022-11-20T05:43:18;100746.69;;;1.06;92.63
73143;BME280;61343;53.694;9.988;2022-11-20T05:45:52;100750.66;;;1.10;92.07
73143;BME280;61343;53.694;9.988;2022-11-20T05:48:17;100739.28;;;1.09;91.58
73143;BME280;61343;53.694;9.988;2022-11-20T05:50:42;100741.63;;;1.12;91.45
73143;BME280;61343;53.694;9.988;2022-11-20T05:53:07;100733.13;;;1.01;91.56
73143;BME280;61343;53.694;9.988;2022-11-20T05:55:33;100739.00;;;0.95;92.35
73143;BME280;61343;53.694;9.988;2022-11-20T05:57:58;100743.59;;;0.93;92.04
73143;BME280;61343;53.694;9.988;2022-11-20T06:00:23;100741.81;;;0.93;92.00
73143;BME280;61343;53.694;9.988;2022-11-20T06:02:48;100745.41;;;0.92;92.29
73143;BME280;61343;53.694;9.988;2022-11-20T06:05:14;100745.03;;;0.87;91.71
73143;BME280;61343;53.694;9.988;2022-11-20T06:07:39;100750.59;;;0.84;92.31
73143;BME280;61343;53.694;9.988;2022-11-20T06:10:04;100749.16;;;0.90;92.05
73143;BME280;61343;53.694;9.988;2022-11-20T06:12:31;100753.22;;;0.84;92.35
73143;BME280;61343;53.694;9.988;2022-11-20T06:14:58;100751.78;;;0.90;91.14
73143;BME280;61343;53.694;9.988;2022-11-20T06:17:23;100758.78;;;0.81;91.71
73143;BME280;61343;53.694;9.988;2022-11-20T06:19:48;100755.78;;;0.76;91.96
73143;BME280;61343;53.694;9.988;2022-11-20T06:22:13;100748.78;;;0.67;92.21
73143;BME280;61343;53.694;9.988;2022-11-20T06:24:39;100757.53;;;0.68;92.53
73143;BME280;61343;53.694;9.988;2022-11-20T06:27:04;100749.63;;;0.68;92.33
73143;BME280;61343;53.694;9.988;2022-11-20T06:29:29;100755.69;;;0.68;92.25
73143;BME280;61343;53.694;9.988;2022-11-20T06:31:54;100758.63;;;0.65;92.30
73143;BME280;61343;53.694;9.988;2022-11-20T06:34:20;100748.94;;;0.66;92.35
73143;BME280;61343;53.694;9.988;2022-11-20T06:36:45;100751.44;;;0.67;92.24
73143;BME280;61343;53.694;9.988;2022-11-20T06:39:10;100758.03;;;0.71;92.16
73143;BME280;61343;53.694;9.988;2022-11-20T06:41:35;100761.66;;;0.70;92.28
73143;BME280;61343;53.694;9.988;2022-11-20T06:44:01;100755.84;;;0.67;92.54
73143;BME280;61343;53.694;9.988;2022-11-20T06:46:26;100752.56;;;0.65;93.52
73143;BME280;61343;53.694;9.988;2022-11-20T06:48:52;100758.50;;;0.84;92.04
73143;BME280;61343;53.694;9.988;2022-11-20T06:51:17;100752.75;;;0.89;91.49
73143;BME280;61343;53.694;9.988;2022-11-20T06:53:42;100764.59;;;0.85;91.73
73143;BME280;61343;53.694;9.988;2022-11-20T06:56:08;100752.94;;;0.87;92.14
73143;BME280;61343;53.694;9.988;2022-11-20T06:58:35;100753.59;;;0.89;92.01
73143;BME280;61343;53.694;9.988;2022-11-20T07:01:02;100751.38;;;0.94;91.81
73143;BME280;61343;53.694;9.988;2022-11-20T07:03:28;100750.38;;;0.95;91.55
73143;BME280;61343;53.694;9.988;2022-11-20T07:05:58;100748.34;;;0.89;91.73
73143;BME280;61343;53.694;9.988;2022-11-20T07:08:24;100750.97;;;0.89;91.46
73143;BME280;61343;53.694;9.988;2022-11-20T07:10:50;100749.47;;;1.04;91.13
73143;BME280;61343;53.694;9.988;2022-11-20T07:13:16;100743.16;;;0.97;91.02
73143;BME280;61343;53.694;9.988;2022-11-20T07:15:41;100752.63;;;0.90;90.90
73143;BME280;61343;53.694;9.988;2022-11-20T07:18:06;100743.97;;;0.80;91.96
73143;BME280;61343;53.694;9.988;2022-11-20T07:20:31;100736.06;;;0.80;91.96
73143;BME280;61343;53.694;9.988;2022-11-20T07:22:57;100734.81;;;0.84;92.05
73143;BME280;61343;53.694;9.988;2022-11-20T07:25:24;100750.44;;;0.86;92.45
73143;BME280;61343;53.694;9.988;2022-11-20T07:27:50;100742.41;;;0.87;92.52
73143;BME280;61343;53.694;9.988;2022-11-20T07:30:16;100743.06;;;0.89;92.40
73143;BME280;61343;53.694;9.988;2022-11-20T07:32:41;100742.09;;;0.90;92.47
73143;BME280;61343;53.694;9.988;2022-11-20T07:35:07;100739.69;;;0.97;92.45
73143;BME280;61343;53.694;9.988;2022-11-20T07:37:35;100732.28;;;1.00;92.36
73143;BME280;61343;53.694;9.988;2022-11-20T07:40:01;100734.25;;;0.98;91.98
73143;BME280;61343;53.694;9.988;2022-11-20T07:42:26;100742.09;;;0.90;91.80
73143;BME280;61343;53.694;9.988;2022-11-20T07:44:51;100740.06;;;0.84;92.42
73143;BME280;61343;53.694;9.988;2022-11-20T07:47:16;100737.75;;;0.81;93.18
73143;BME280;61343;53.694;9.988;2022-11-20T07:49:42;100742.41;;;0.87;93.00
73143;BME280;61343;53.694;9.988;2022-11-20T07:52:07;100737.66;;;0.91;92.83
73143;BME280;61343;53.694;9.988;2022-11-20T07:54:32;100739.47;;;0.90;92.86
73143;BME280;61343;53.694;9.988;2022-11-20T07:56:58;100735.41;;;0.96;93.39
73143;BME280;61343;53.694;9.988;2022-11-20T07:59:23;100736.59;;;1.01;93.17
73143;BME280;61343;53.694;9.988;2022-11-20T08:01:48;100741.50;;;0.96;92.73
73143;BME280;61343;53.694;9.988;2022-11-20T08:04:13;100744.44;;;0.93;92.70
73143;BME280;61343;53.694;9.988;2022-11-20T08:06:41;100745.09;;;0.95;93.22
73143;BME280;61343;53.694;9.988;2022-11-20T08:09:06;100730.78;;;0.98;92.86
73143;BME280;61343;53.694;9.988;2022-11-20T08:11:31;100737.56;;;1.00;93.46
73143;BME280;61343;53.694;9.988;2022-11-20T08:14:15;100735.03;;;1.08;92.90
73143;BME280;61343;53.694;9.988;2022-11-20T08:16:43;100735.03;;;1.08;92.53
73143;BME280;61343;53.694;9.988;2022-11-20T08:19:09;100733.88;;;1.11;92.83
73143;BME280;61343;53.694;9.988;2022-11-20T08:21:34;100735.16;;;1.07;92.66
73143;BME280;61343;53.694;9.988;2022-11-20T08:23:59;100742.03;;;1.00;93.04
73143;BME280;61343;53.694;9.988;2022-11-20T08:26:25;100744.25;;;0.95;93.71
73143;BME280;61343;53.694;9.988;2022-11-20T08:28:54;100752.03;;;0.96;94.42
73143;BME280;61343;53.694;9.988;2022-11-20T08:31:20;100743.97;;;0.98;94.48
73143;BME280;61343;53.694;9.988;2022-11-20T08:33:45;100737.91;;;0.97;94.64
73143;BME280;61343;53.694;9.988;2022-11-20T08:36:11;100743.28;;;0.96;94.62
73143;BME280;61343;53.694;9.988;2022-11-20T08:38:36;100743.59;;;0.93;94.85
73143;BME280;61343;53.694;9.988;2022-11-20T08:41:03;100739.53;;;0.98;94.70
73143;BME280;61343;53.694;9.988;2022-11-20T08:43:47;100745.09;;;0.95;94.90
73143;BME280;61343;53.694;9.988;2022-11-20T08:46:12;100754.66;;;0.96;95.07
73143;BME280;61343;53.694;9.988;2022-11-20T08:48:38;100757.28;;;0.96;95.28
73143;BME280;61343;53.694;9.988;2022-11-20T08:51:03;100742.03;;;1.00;95.43
73143;BME280;61343;53.694;9.988;2022-11-20T08:53:29;100750.28;;;1.05;95.09
73143;BME280;61343;53.694;9.988;2022-11-20T08:55:54;100742.09;;;1.08;95.24
73143;BME280;61343;53.694;9.988;2022-11-20T08:58:21;100747.19;;;1.09;95.05
73143;BME280;61343;53.694;9.988;2022-11-20T09:00:47;100743.59;;;1.10;94.75
73143;BME280;61343;53.694;9.988;2022-11-20T09:03:12;100748.84;;;1.10;95.05
73143;BME280;61343;53.694;9.988;2022-11-20T09:05:38;100741.63;;;1.12;94.90
73143;BME280;61343;53.694;9.988;2022-11-20T09:08:04;100745.78;;;1.15;94.75
73143;BME280;61343;53.694;9.988;2022-11-20T09:10:29;100745.47;;;1.18;94.73
73143;BME280;61343;53.694;9.988;2022-11-20T09:12:55;100745.53;;;1.26;95.18
73143;BME280;61343;53.694;9.988;2022-11-20T09:15:20;100758.75;;;1.34;94.65
73143;BME280;61343;53.694;9.988;2022-11-20T09:17:57;100764.50;;;1.30;94.53
73143;BME280;61343;53.694;9.988;2022-11-20T09:20:23;100766.22;;;1.39;94.47
73143;BME280;61343;53.694;9.988;2022-11-20T09:22:48;100760.59;;;1.42;94.61
73143;BME280;61343;53.694;9.988;2022-11-20T09:25:13;100751.00;;;1.33;94.50
73143;BME280;61343;53.694;9.988;2022-11-20T09:27:39;100751.69;;;1.35;94.55
73143;BME280;61343;53.694;9.988;2022-11-20T09:30:06;100756.34;;;1.41;95.08
73143;BME280;61343;53.694;9.988;2022-11-20T09:32:32;100757.34;;;1.48;94.68
73143;BME280;61343;53.694;9.988;2022-11-20T09:34:57;100756.84;;;1.44;94.15
73143;BME280;61343;53.694;9.988;2022-11-20T09:37:23;100752.38;;;1.45;94.60
73143;BME280;61343;53.694;9.988;2022-11-20T09:39:48;100743.47;;;1.63;95.52
73143;BME280;61343;53.694;9.988;2022-11-20T09:45:11;100750.41;;;1.64;93.86
73143;BME280;61343;53.694;9.988;2022-11-20T09:50:44;100751.56;;;1.70;92.55
73143;BME280;61343;53.694;9.988;2022-11-20T09:56:01;100745.38;;;1.79;91.67
73143;BME280;61343;53.694;9.988;2022-11-20T09:58:42;100757.72;;;1.79;91.63
73143;BME280;61343;53.694;9.988;2022-11-20T10:01:18;100750.22;;;1.66;91.39
73143;BME280;61343;53.694;9.988;2022-11-20T10:04:03;100746.56;;;1.59;91.48
73143;BME280;61343;53.694;9.988;2022-11-20T10:06:35;100747.84;;;1.55;92.23
73143;BME280;61343;53.694;9.988;2022-11-20T10:11:58;100746.19;;;1.54;91.91
73143;BME280;61343;53.694;9.988;2022-11-20T10:14:45;100755.44;;;1.58;92.35
73143;BME280;61343;53.694;9.988;2022-11-20T10:25:57;100739.78;;;1.82;90.69
73143;BME280;61343;53.694;9.988;2022-11-20T10:31:03;100740.47;;;1.92;89.71
73143;BME280;61343;53.694;9.988;2022-11-20T10:33:33;100738.34;;;1.96;89.96
73143;BME280;61343;53.694;9.988;2022-11-20T10:36:13;100734.25;;;2.01;89.79
73143;BME280;61343;53.694;9.988;2022-11-20T10:38:50;100735.09;;;2.02;90.00
73143;BME280;61343;53.694;9.988;2022-11-20T10:41:24;100732.31;;;2.03;89.83
73143;BME280;61343;53.694;9.988;2022-11-20T10:44:04;100733.63;;;2.07;89.80
73143;BME280;61343;53.694;9.988;2022-11-20T10:46:40;100740.44;;;2.18;89.99
73143;BME280;61343;53.694;9.988;2022-11-20T10:49:13;100730.41;;;2.30;89.67
73143;BME280;61343;53.694;9.988;2022-11-20T10:51:52;100735.59;;;2.05;88.35
73143;BME280;61343;53.694;9.988;2022-11-20T10:54:58;100730.94;;;1.91;89.04
73143;BME280;61343;53.694;9.988;2022-11-20T11:00:14;100738.84;;;1.91;89.05
73143;BME280;61343;53.694;9.988;2022-11-20T11:02:47;100733.56;;;1.91;89.42
73143;BME280;61343;53.694;9.988;2022-11-20T11:05:25;100725.03;;;2.05;88.12
73143;BME280;61343;53.694;9.988;2022-11-20T11:07:55;100723.91;;;2.08;89.00
73143;BME280;61343;53.694;9.988;2022-11-20T11:10:34;100718.81;;;2.14;88.70
73143;BME280;61343;53.694;9.988;2022-11-20T11:13:01;100719.16;;;2.19;88.24
73143;BME280;61343;53.694;9.988;2022-11-20T11:15:29;100709.63;;;2.35;88.39
73143;BME280;61343;53.694;9.988;2022-11-20T11:17:55;100706.03;;;2.44;87.74
73143;BME280;61343;53.694;9.988;2022-11-20T11:20:23;100704.38;;;2.43;87.40
73143;BME280;61343;53.694;9.988;2022-11-20T11:22:53;100706.38;;;2.49;87.23
73143;BME280;61343;53.694;9.988;2022-11-20T11:25:30;100700.75;;;2.52;86.98
73143;BME280;61343;53.694;9.988;2022-11-20T11:27:58;100700.44;;;2.55;87.14
73143;BME280;61343;53.694;9.988;2022-11-20T11:30:26;100694.31;;;2.54;86.24
73143;BME280;61343;53.694;9.988;2022-11-20T11:33:03;100692.19;;;2.58;86.76
73143;BME280;61343;53.694;9.988;2022-11-20T11:35:29;100677.69;;;2.70;87.11
73143;BME280;61343;53.694;9.988;2022-11-20T11:38:03;100682.00;;;2.79;85.45
73143;BME280;61343;53.694;9.988;2022-11-20T11:40:31;100677.69;;;2.78;86.07
73143;BME280;61343;53.694;9.988;2022-11-20T11:42:59;100679.34;;;3.03;84.99
73143;BME280;61343;53.694;9.988;2022-11-20T11:45:26;100679.97;;;3.13;83.45
73143;BME280;61343;53.694;9.988;2022-11-20T11:47:54;100673.19;;;3.19;83.69
73143;BME280;61343;53.694;9.988;2022-11-20T11:50:26;100679.00;;;3.14;83.26
73143;BME280;61343;53.694;9.988;2022-11-20T11:53:14;100670.75;;;3.17;83.68
73143;BME280;61343;53.694;9.988;2022-11-20T11:56:08;100675.38;;;3.15;82.41
73143;BME280;61343;53.694;9.988;2022-11-20T11:58:46;100682.97;;;3.18;83.28
73143;BME280;61343;53.694;9.988;2022-11-20T12:06:50;100684.44;;;3.05;83.36
73143;BME280;61343;53.694;9.988;2022-11-20T12:09:18;100682.13;;;3.02;82.47
73143;BME280;61343;53.694;9.988;2022-11-20T12:11:49;100672.41;;;3.02;83.26
73143;BME280;61343;53.694;9.988;2022-11-20T12:14:22;100675.53;;;3.14;82.82
73143;BME280;61343;53.694;9.988;2022-11-20T12:16:53;100673.06;;;3.12;82.62
73143;BME280;61343;53.694;9.988;2022-11-20T12:19:20;100671.38;;;3.19;81.83
73143;BME280;61343;53.694;9.988;2022-11-20T12:21:54;100675.03;;;3.18;82.35
73143;BME280;61343;53.694;9.988;2022-11-20T12:24:37;100672.72;;;3.15;81.86
73143;BME280;61343;53.694;9.988;2022-11-20T12:30:04;100678.69;;;2.93;83.12
73143;BME280;61343;53.694;9.988;2022-11-20T12:38:23;100661.53;;;2.89;82.37
73143;BME280;61343;53.694;9.988;2022-11-20T12:44:49;100652.25;;;3.09;82.49
73143;BME280;61343;53.694;9.988;2022-11-20T12:53:22;100648.13;;;3.07;82.55
73143;BME280;61343;53.694;9.988;2022-11-20T12:55:58;100651.44;;;3.01;82.14
73143;BME280;61343;53.694;9.988;2022-11-20T13:06:34;100644.31;;;3.01;83.18
73143;BME280;61343;53.694;9.988;2022-11-20T13:09:00;100648.13;;;3.07;82.60
73143;BME280;61343;53.694;9.988;2022-11-20T13:11:44;100645.16;;;3.18;82.71
73143;BME280;61343;53.694;9.988;2022-11-20T13:14:19;100642.66;;;3.16;82.32
73143;BME280;61343;53.694;9.988;2022-11-20T13:17:05;100640.53;;;3.12;81.94
73143;BME280;61343;53.694;9.988;2022-11-20T13:19:35;100637.88;;;3.20;81.00
73143;BME280;61343;53.694;9.988;2022-11-20T13:22:00;100639.53;;;3.13;81.23
73143;BME280;61343;53.694;9.988;2022-11-20T13:24:34;100632.44;;;3.21;80.89
73143;BME280;61343;53.694;9.988;2022-11-20T13:29:33;100636.41;;;3.09;80.02
73143;BME280;61343;53.694;9.988;2022-11-20T13:32:05;100633.41;;;3.04;79.73
73143;BME280;61343;53.694;9.988;2022-11-20T13:34:31;100637.41;;;3.00;79.46
73143;BME280;61343;53.694;9.988;2022-11-20T13:36:58;100628.50;;;2.93;80.21
73143;BME280;61343;53.694;9.988;2022-11-20T13:39:34;100634.09;;;2.98;80.78
73143;BME280;61343;53.694;9.988;2022-11-20T13:42:23;100630.91;;;3.19;83.04
73143;BME280;61343;53.694;9.988;2022-11-20T13:44:53;100635.00;;;3.37;84.04
73143;BME280;61343;53.694;9.988;2022-11-20T13:47:21;100633.16;;;3.46;79.84
73143;BME280;61343;53.694;9.988;2022-11-20T13:49:47;100624.78;;;3.34;80.52
73143;BME280;61343;53.694;9.988;2022-11-20T13:55:28;100627.59;;;3.33;80.48
73143;BME280;61343;53.694;9.988;2022-11-20T14:00:27;100615.34;;;3.79;85.41
73143;BME280;61343;53.694;9.988;2022-11-20T14:03:06;100614.78;;;3.61;80.53
73143;BME280;61343;53.694;9.988;2022-11-20T14:05:37;100603.94;;;3.48;79.06
73143;BME280;61343;53.694;9.988;2022-11-20T14:08:06;100616.50;;;3.37;78.51
73143;BME280;61343;53.694;9.988;2022-11-20T14:10:32;100608.91;;;3.34;79.67
73143;BME280;61343;53.694;9.988;2022-11-20T14:12:57;100608.59;;;3.37;79.70
73143;BME280;61343;53.694;9.988;2022-11-20T14:15:30;100611.88;;;3.39;79.51